Time;durP1;ratioP1;P1;durP2;ratioP2;P2;SDS_P1;SDS_P2;PMS_P1;PMS_P2;Temp;Humidity;BMP_temperature;BMP_pressure;BME280_temperature;BME280_humidity;BME280_pressure;Samples;Min_cycle;Max_cycle;Signal;HPM_P1;HPM_P2
2023/06/17 00:01:19;;;;;;;15.40;11.20;;;14.60;99.90;;;;;;5032009;28;20106;-80
2023/06/17 00:03:45;;;;;;;20.58;12.40;;;14.70;99.90;;;;;;5032076;28;20124;-80
2023/06/17 00:06:11;;;;;;;16.45;10.50;;;14.80;99.90;;;;;;5031632;28;20083;-79
2023/06/17 00:08:37;;;;;;;16.70;11.43;;;14.70;99.90;;;;;;5019573;28;20048;-80
2023/06/17 00:11:03;;;;;;;16.50;11.00;;;14.80;99.90;;;;;;5054064;28;20049;-80
2023/06/17 00:13:29;;;;;;;18.80;11.20;;;14.90;99.90;;;;;;5035837;28;20044;-80
2023/06/17 00:15:59;;;;;;;16.88;11.10;;;14.80;99.90;;;;;;5035918;28;20044;-80
2023/06/17 00:18:25;;;;;;;18.35;12.85;;;14.90;99.90;;;;;;5035590;28;20052;-81
2023/06/17 00:20:53;;;;;;;21.90;13.43;;;14.90;99.90;;;;;;5054005;28;20116;-80
2023/06/17 00:23:22;;;;;;;18.17;12.05;;;14.90;99.90;;;;;;5053714;28;20053;-80
2023/06/17 00:25:49;;;;;;;22.20;12.85;;;15.00;99.90;;;;;;5035733;28;20075;-80
2023/06/17 00:28:15;;;;;;;21.70;12.23;;;15.00;99.90;;;;;;5035986;28;20500;-80
2023/06/17 00:30:40;;;;;;;22.05;13.23;;;15.10;99.90;;;;;;5053491;28;20109;-80
2023/06/17 00:33:06;;;;;;;21.85;13.45;;;15.10;99.90;;;;;;5035761;28;20051;-79
2023/06/17 00:35:34;;;;;;;22.45;14.02;;;15.20;99.90;;;;;;5035777;28;20101;-80
2023/06/17 00:37:59;;;;;;;19.92;13.15;;;15.20;99.90;;;;;;5053108;28;20538;-80
2023/06/17 00:40:25;;;;;;;21.75;13.23;;;15.20;99.90;;;;;;5035470;28;20044;-80
2023/06/17 00:42:51;;;;;;;20.00;13.65;;;15.30;99.90;;;;;;5018790;28;20085;-81
2023/06/17 00:45:17;;;;;;;21.75;13.10;;;15.30;99.90;;;;;;5018503;28;20049;-80
2023/06/17 00:47:44;;;;;;;22.65;14.55;;;15.40;99.90;;;;;;5018798;28;20536;-80
2023/06/17 00:50:12;;;;;;;20.90;14.60;;;15.40;99.90;;;;;;5053476;28;20404;-80
2023/06/17 00:52:40;;;;;;;24.30;14.43;;;15.40;99.90;;;;;;5035342;28;20072;-80
2023/06/17 00:55:08;;;;;;;22.02;13.48;;;15.40;99.90;;;;;;5053666;28;20049;-80
2023/06/17 00:57:35;;;;;;;21.65;13.40;;;15.50;99.90;;;;;;5035254;28;20053;-79
2023/06/17 01:00:03;;;;;;;29.80;18.30;;;15.50;99.90;;;;;;5035176;28;20061;-80
2023/06/17 01:02:29;;;;;;;30.88;19.65;;;15.50;99.90;;;;;;5026947;28;20532;-80
2023/06/17 01:04:55;;;;;;;38.38;17.92;;;15.60;99.90;;;;;;5034936;28;20076;-79
2023/06/17 01:07:50;;;;;;;27.65;17.67;;;15.50;99.90;;;;;;5052401;28;20045;-81
2023/06/17 01:10:19;;;;;;;29.80;19.70;;;15.60;99.90;;;;;;5053035;28;20051;-77
2023/06/17 01:12:47;;;;;;;29.58;19.95;;;15.60;99.90;;;;;;5052891;28;20051;-79
2023/06/17 01:15:16;;;;;;;27.95;19.30;;;15.50;99.90;;;;;;5035014;28;20106;-80
2023/06/17 01:17:46;;;;;;;28.00;19.48;;;15.60;99.90;;;;;;5034718;28;20049;-79
2023/06/17 01:20:13;;;;;;;25.48;17.83;;;15.60;99.90;;;;;;5051845;28;20055;-79
2023/06/17 01:22:39;;;;;;;32.67;19.25;;;15.60;99.90;;;;;;5034478;28;20052;-80
2023/06/17 01:25:06;;;;;;;26.75;19.73;;;15.60;99.90;;;;;;5034500;28;20044;-80
2023/06/17 01:27:33;;;;;;;30.08;19.83;;;15.60;99.90;;;;;;5034758;28;20075;-79
2023/06/17 01:29:59;;;;;;;27.33;19.15;;;15.60;99.90;;;;;;5052364;28;20056;-80
2023/06/17 01:32:25;;;;;;;31.05;19.23;;;15.60;99.90;;;;;;5052389;28;20499;-78
2023/06/17 01:35:03;;;;;;;31.15;18.88;;;15.60;99.90;;;;;;5034548;28;20079;-80
2023/06/17 01:37:49;;;;;;;26.50;20.48;;;15.70;99.90;;;;;;5052213;28;20519;-79
2023/06/17 01:40:18;;;;;;;31.08;19.92;;;15.60;99.90;;;;;;5027125;28;20041;-78
2023/06/17 01:42:46;;;;;;;30.40;20.35;;;15.70;99.90;;;;;;5034550;28;20040;-80
2023/06/17 01:45:13;;;;;;;30.73;19.50;;;15.70;99.90;;;;;;5026241;28;20060;-80
2023/06/17 01:47:39;;;;;;;35.25;21.02;;;15.70;99.90;;;;;;5034082;28;20102;-80
2023/06/17 01:50:05;;;;;;;29.70;20.13;;;15.70;99.90;;;;;;5034258;28;20400;-78
2023/06/17 01:52:32;;;;;;;32.45;21.00;;;15.70;99.90;;;;;;5034609;28;20048;-79
2023/06/17 01:54:58;;;;;;;30.65;21.73;;;15.70;99.90;;;;;;5033860;28;20111;-80
2023/06/17 01:57:25;;;;;;;36.22;20.02;;;15.70;99.90;;;;;;5034091;28;20037;-79
2023/06/17 01:59:52;;;;;;;29.67;18.80;;;15.70;99.90;;;;;;5052457;28;20052;-80
2023/06/17 02:02:18;;;;;;;29.20;19.88;;;15.70;99.90;;;;;;5051959;28;20037;-79
2023/06/17 02:04:44;;;;;;;26.05;20.02;;;15.70;99.90;;;;;;5033661;28;20071;-79
2023/06/17 02:07:10;;;;;;;26.70;20.30;;;15.60;99.90;;;;;;5034263;28;20420;-79
2023/06/17 02:09:37;;;;;;;30.00;20.13;;;15.70;99.90;;;;;;5033903;28;20049;-81
2023/06/17 02:12:04;;;;;;;30.70;20.88;;;15.70;99.90;;;;;;5033843;28;20045;-79
2023/06/17 02:14:30;;;;;;;30.05;18.67;;;15.70;99.90;;;;;;5051685;28;20036;-78
2023/06/17 02:16:56;;;;;;;32.90;21.10;;;15.70;99.90;;;;;;5033600;28;20070;-80
2023/06/17 02:19:22;;;;;;;33.00;21.38;;;15.70;99.90;;;;;;5051636;28;20049;-80
2023/06/17 02:21:48;;;;;;;28.33;20.30;;;15.70;99.90;;;;;;5033887;28;20369;-80
2023/06/17 02:24:14;;;;;;;30.83;22.17;;;15.60;99.90;;;;;;5051472;28;20045;-78
2023/06/17 02:26:41;;;;;;;25.73;20.75;;;15.60;99.90;;;;;;5051104;28;20128;-81
2023/06/17 02:29:07;;;;;;;29.67;21.55;;;15.60;99.90;;;;;;5051364;28;20550;-78
2023/06/17 02:31:33;;;;;;;35.20;20.75;;;15.50;99.90;;;;;;5032075;28;20049;-79
2023/06/17 02:34:00;;;;;;;27.40;20.45;;;15.60;99.90;;;;;;5043233;28;20454;-80
2023/06/17 02:36:26;;;;;;;31.65;19.67;;;15.60;99.90;;;;;;5051193;28;20045;-81
2023/06/17 02:38:53;;;;;;;31.13;20.88;;;15.60;99.90;;;;;;5033127;28;20118;-79
2023/06/17 02:41:19;;;;;;;33.88;19.88;;;15.60;99.90;;;;;;5033270;28;20091;-79
2023/06/17 02:43:45;;;;;;;29.13;19.70;;;15.60;99.90;;;;;;5033101;28;20132;-79
2023/06/17 02:46:11;;;;;;;33.72;19.13;;;15.60;99.90;;;;;;5050956;28;20128;-79
2023/06/17 02:48:36;;;;;;;24.00;17.95;;;15.60;99.90;;;;;;5051180;28;20041;-79
2023/06/17 02:51:04;;;;;;;33.25;19.63;;;15.60;99.90;;;;;;5032715;28;20531;-79
2023/06/17 02:53:29;;;;;;;32.13;18.98;;;15.60;99.90;;;;;;5032814;28;20083;-80
2023/06/17 02:55:55;;;;;;;26.67;17.42;;;15.60;99.90;;;;;;5050491;28;20275;-80
2023/06/17 02:58:21;;;;;;;27.33;17.65;;;15.70;99.90;;;;;;5032798;28;20064;-79
2023/06/17 03:00:47;;;;;;;36.40;18.33;;;15.70;99.90;;;;;;5051047;28;20135;-79
2023/06/17 03:03:13;;;;;;;21.88;17.63;;;15.70;99.90;;;;;;5050805;28;20040;-79
2023/06/17 03:05:38;;;;;;;22.63;17.95;;;15.70;99.90;;;;;;5050554;28;20508;-79
2023/06/17 03:08:06;;;;;;;31.63;19.42;;;15.70;99.90;;;;;;5050726;28;20116;-79
2023/06/17 03:10:35;;;;;;;31.08;18.73;;;15.70;99.90;;;;;;5032780;28;20461;-78
2023/06/17 03:13:01;;;;;;;24.27;18.73;;;15.70;99.90;;;;;;5050322;28;20033;-80
2023/06/17 03:15:27;;;;;;;25.85;17.60;;;15.70;99.90;;;;;;5032498;28;20048;-79
2023/06/17 03:17:54;;;;;;;31.23;18.40;;;15.70;99.90;;;;;;5050683;28;20091;-80
2023/06/17 03:20:20;;;;;;;24.83;18.25;;;15.70;99.90;;;;;;5032967;28;20049;-79
2023/06/17 03:22:47;;;;;;;30.45;20.25;;;15.70;99.90;;;;;;5032873;28;20049;-80
2023/06/17 03:25:13;;;;;;;29.65;17.83;;;15.60;99.90;;;;;;5050536;28;20492;-79
2023/06/17 03:27:38;;;;;;;30.67;18.25;;;15.70;99.90;;;;;;5032201;28;20048;-80
2023/06/17 03:30:05;;;;;;;31.45;17.92;;;15.70;99.90;;;;;;5032648;28;20065;-80
2023/06/17 03:32:31;;;;;;;29.08;19.63;;;15.70;99.90;;;;;;5050625;28;20047;-80
2023/06/17 03:34:56;;;;;;;25.52;17.38;;;15.70;99.90;;;;;;5050416;28;20041;-79
2023/06/17 03:37:22;;;;;;;30.30;20.25;;;15.80;99.90;;;;;;5050752;28;20072;-79
2023/06/17 03:39:48;;;;;;;25.88;18.83;;;15.80;99.90;;;;;;5015209;28;20131;-80
2023/06/17 03:42:17;;;;;;;28.70;20.00;;;15.80;99.90;;;;;;5031607;28;20044;-79
2023/06/17 03:44:43;;;;;;;24.75;18.48;;;15.80;99.90;;;;;;5050167;28;20455;-79
2023/06/17 03:47:08;;;;;;;25.10;19.10;;;15.80;99.90;;;;;;5032104;28;20128;-80
2023/06/17 03:49:34;;;;;;;26.95;20.15;;;15.80;99.90;;;;;;5050750;28;20182;-79
2023/06/17 03:52:00;;;;;;;26.45;19.95;;;15.70;99.90;;;;;;5032832;28;20081;-80
2023/06/17 03:54:26;;;;;;;27.88;20.40;;;15.70;99.90;;;;;;5050571;28;20479;-79
2023/06/17 03:56:51;;;;;;;26.02;20.33;;;15.70;99.90;;;;;;5050186;28;20095;-78
2023/06/17 03:59:17;;;;;;;28.52;20.63;;;15.70;99.90;;;;;;5015470;28;20053;-80
2023/06/17 04:01:43;;;;;;;27.17;20.25;;;15.60;99.90;;;;;;5032021;28;20056;-76
2023/06/17 04:04:09;;;;;;;29.45;19.98;;;15.60;99.90;;;;;;5031854;28;20049;-75
2023/06/17 04:06:35;;;;;;;27.33;20.15;;;15.50;99.90;;;;;;5032391;28;20373;-79
2023/06/17 04:09:02;;;;;;;30.30;19.27;;;15.50;99.90;;;;;;5049877;28;20052;-80
2023/06/17 04:11:30;;;;;;;31.13;19.45;;;15.50;99.90;;;;;;5049998;28;20073;-78
2023/06/17 04:13:55;;;;;;;30.63;18.55;;;15.60;99.90;;;;;;5031757;28;20099;-79
2023/06/17 04:16:21;;;;;;;28.15;19.42;;;15.50;99.90;;;;;;5049887;28;20036;-78
2023/06/17 04:18:48;;;;;;;28.90;20.17;;;15.50;99.90;;;;;;5050212;28;20037;-79
2023/06/17 04:21:13;;;;;;;27.02;19.02;;;15.50;99.90;;;;;;5032293;28;20632;-80
2023/06/17 04:23:39;;;;;;;31.38;18.52;;;15.60;99.90;;;;;;5049845;28;20451;-81
2023/06/17 04:26:05;;;;;;;28.50;19.75;;;15.60;99.90;;;;;;5049977;28;20076;-78
2023/06/17 04:28:32;;;;;;;25.23;19.48;;;15.60;99.90;;;;;;5049879;28;20502;-80
2023/06/17 04:31:01;;;;;;;26.10;19.05;;;15.60;99.90;;;;;;5050313;28;20064;-80
2023/06/17 04:33:30;;;;;;;30.20;18.58;;;15.60;99.90;;;;;;5032102;28;20389;-79
2023/06/17 04:35:57;;;;;;;24.05;18.27;;;15.60;99.90;;;;;;5049800;28;20055;-79
2023/06/17 04:38:23;;;;;;;29.63;17.95;;;15.60;99.90;;;;;;5031997;28;20102;-80
2023/06/17 04:40:52;;;;;;;22.02;17.80;;;15.60;99.90;;;;;;5049551;28;20496;-79
2023/06/17 04:43:20;;;;;;;25.55;18.30;;;15.50;99.90;;;;;;5049924;28;20152;-81
2023/06/17 04:45:46;;;;;;;27.98;18.77;;;15.50;99.90;;;;;;5049543;28;20084;-78
2023/06/17 04:48:12;;;;;;;23.63;16.35;;;15.50;99.90;;;;;;5049779;28;20416;-79
2023/06/17 04:50:38;;;;;;;25.80;16.13;;;15.40;99.90;;;;;;5049383;28;20484;-80
2023/06/17 04:53:03;;;;;;;24.42;16.77;;;15.50;99.90;;;;;;5049696;28;20053;-79
2023/06/17 04:55:30;;;;;;;25.15;18.27;;;15.50;99.90;;;;;;5034947;28;20048;-79
2023/06/17 04:57:56;;;;;;;27.70;19.02;;;15.40;99.90;;;;;;5053061;28;20051;-79
2023/06/17 05:00:22;;;;;;;21.70;16.98;;;15.40;99.90;;;;;;5034978;28;20139;-77
2023/06/17 05:02:48;;;;;;;27.25;17.90;;;15.50;99.90;;;;;;5053280;28;20040;-78
2023/06/17 05:05:13;;;;;;;26.73;17.02;;;15.50;99.90;;;;;;5052788;28;20037;-79
2023/06/17 05:07:39;;;;;;;24.08;16.70;;;15.40;99.90;;;;;;5034993;28;20531;-79
2023/06/17 05:10:05;;;;;;;24.98;17.80;;;15.40;99.90;;;;;;5052962;28;20132;-78
2023/06/17 05:12:31;;;;;;;31.30;17.58;;;15.50;99.90;;;;;;5052846;28;20069;-78
2023/06/17 05:14:56;;;;;;;26.60;16.67;;;15.50;99.90;;;;;;5052583;28;20072;-77
2023/06/17 05:17:22;;;;;;;23.85;15.70;;;15.50;99.90;;;;;;5035145;28;20442;-78
2023/06/17 05:19:48;;;;;;;26.55;16.42;;;15.50;99.90;;;;;;5052651;28;20501;-78
2023/06/17 05:22:14;;;;;;;24.70;16.88;;;15.50;99.90;;;;;;5052688;28;20044;-79
2023/06/17 05:24:40;;;;;;;24.00;15.93;;;15.50;99.90;;;;;;5052544;28;20408;-79
2023/06/17 05:27:05;;;;;;;24.25;16.20;;;15.60;99.90;;;;;;5052658;28;20394;-80
2023/06/17 05:29:31;;;;;;;26.27;17.70;;;15.60;99.90;;;;;;5034500;28;20051;-79
2023/06/17 05:31:57;;;;;;;25.10;17.55;;;15.50;99.90;;;;;;5026175;28;20055;-79
2023/06/17 05:34:22;;;;;;;22.38;16.80;;;15.60;99.90;;;;;;5052553;28;20111;-79
2023/06/17 05:36:48;;;;;;;26.67;18.25;;;15.50;99.90;;;;;;5034428;28;20125;-80
2023/06/17 05:39:13;;;;;;;27.23;18.20;;;15.50;99.90;;;;;;5034041;28;20124;-79
2023/06/17 05:41:39;;;;;;;23.25;16.58;;;15.60;99.90;;;;;;5052351;28;20526;-79
2023/06/17 05:44:05;;;;;;;29.05;17.40;;;15.70;99.90;;;;;;5034094;28;20883;-80
2023/06/17 05:46:31;;;;;;;24.88;17.17;;;15.70;99.90;;;;;;5033825;28;20483;-80
2023/06/17 05:48:56;;;;;;;27.92;18.55;;;15.80;99.90;;;;;;5034290;28;20439;-80
2023/06/17 05:51:27;;;;;;;22.45;16.85;;;15.80;99.90;;;;;;5034223;28;20133;-79
2023/06/17 05:53:53;;;;;;;25.98;19.27;;;15.80;99.90;;;;;;5052335;28;20044;-80
2023/06/17 05:56:19;;;;;;;24.70;17.30;;;15.80;99.90;;;;;;5033892;28;20045;-79
2023/06/17 05:58:44;;;;;;;25.00;17.65;;;15.80;99.90;;;;;;5034067;28;20091;-78
2023/06/17 06:01:11;;;;;;;24.85;17.67;;;15.80;99.90;;;;;;5032966;28;20075;-80
2023/06/17 06:03:37;;;;;;;24.92;18.80;;;15.80;99.90;;;;;;5051950;28;20045;-79
2023/06/17 06:06:02;;;;;;;28.05;18.75;;;15.90;99.90;;;;;;5033591;28;20052;-78
2023/06/17 06:08:28;;;;;;;27.17;19.30;;;15.80;99.90;;;;;;5051955;28;20094;-79
2023/06/17 06:10:54;;;;;;;25.00;19.15;;;15.90;99.90;;;;;;5051990;28;20650;-79
2023/06/17 06:13:20;;;;;;;26.58;19.02;;;15.80;99.90;;;;;;5051788;28;20155;-79
2023/06/17 06:15:46;;;;;;;29.42;20.17;;;15.80;99.90;;;;;;5051769;28;20124;-78
2023/06/17 06:18:12;;;;;;;31.88;21.27;;;15.90;99.90;;;;;;5033702;28;20071;-78
2023/06/17 06:20:38;;;;;;;30.77;21.77;;;15.80;99.90;;;;;;5033665;28;20049;-78
2023/06/17 06:23:04;;;;;;;29.40;22.08;;;15.90;99.90;;;;;;5051752;28;20124;-79
2023/06/17 06:25:29;;;;;;;35.85;21.67;;;15.90;99.90;;;;;;5051268;28;20404;-80
2023/06/17 06:27:55;;;;;;;35.72;22.73;;;15.90;99.90;;;;;;5033951;28;20037;-79
2023/06/17 06:30:21;;;;;;;29.88;21.90;;;15.90;99.90;;;;;;5033238;28;20136;-79
2023/06/17 06:32:46;;;;;;;30.30;20.00;;;15.90;99.90;;;;;;5033333;28;20049;-80
2023/06/17 06:35:13;;;;;;;28.80;20.08;;;16.00;99.90;;;;;;5033746;28;20492;-80
2023/06/17 06:37:38;;;;;;;28.80;20.08;;;15.90;99.90;;;;;;5033384;28;20049;-78
2023/06/17 06:40:05;;;;;;;31.15;19.33;;;16.00;99.90;;;;;;5051214;28;20052;-79
2023/06/17 06:42:31;;;;;;;26.05;19.08;;;16.00;99.90;;;;;;5033137;28;20044;-79
2023/06/17 06:44:56;;;;;;;28.45;19.40;;;16.00;99.90;;;;;;5050800;28;20107;-79
2023/06/17 06:47:22;;;;;;;26.13;17.65;;;16.10;99.90;;;;;;5033084;28;20041;-79
2023/06/17 06:49:48;;;;;;;28.52;18.77;;;16.20;99.90;;;;;;5033168;28;20056;-79
2023/06/17 06:52:14;;;;;;;23.38;16.67;;;16.30;99.90;;;;;;5051060;28;20053;-80
2023/06/17 06:54:40;;;;;;;29.73;19.08;;;16.20;99.90;;;;;;5051328;28;20044;-79
2023/06/17 06:57:05;;;;;;;22.75;16.77;;;16.30;99.90;;;;;;5050824;28;20041;-79
2023/06/17 06:59:31;;;;;;;24.77;17.60;;;16.40;99.90;;;;;;5051134;28;20044;-79
2023/06/17 07:01:57;;;;;;;27.77;17.33;;;16.40;99.90;;;;;;5033363;28;20037;-80
2023/06/17 07:04:23;;;;;;;22.08;15.38;;;16.40;99.90;;;;;;5033040;28;20041;-79
2023/06/17 07:06:49;;;;;;;23.50;15.77;;;16.60;99.90;;;;;;5050963;28;20492;-80
2023/06/17 07:09:15;;;;;;;24.33;15.40;;;16.60;99.90;;;;;;5050480;28;20119;-79
2023/06/17 07:11:41;;;;;;;21.20;15.60;;;16.70;99.90;;;;;;5032541;28;20132;-80
2023/06/17 07:14:06;;;;;;;19.95;15.30;;;16.80;99.90;;;;;;5050520;28;20100;-79
2023/06/17 07:16:32;;;;;;;22.83;16.02;;;16.90;99.90;;;;;;5049815;28;20705;-79
2023/06/17 07:18:58;;;;;;;21.40;16.00;;;17.00;99.90;;;;;;5050658;28;20447;-79
2023/06/17 07:21:23;;;;;;;20.85;14.60;;;17.10;99.90;;;;;;5032569;28;20045;-79
2023/06/17 07:23:50;;;;;;;22.85;15.23;;;17.20;99.90;;;;;;5032671;28;20175;-80
2023/06/17 07:26:16;;;;;;;22.17;16.85;;;17.20;99.90;;;;;;5015585;28;20119;-79
2023/06/17 07:28:42;;;;;;;25.05;14.95;;;17.30;99.90;;;;;;5032299;28;20633;-79
2023/06/17 07:31:08;;;;;;;19.70;15.32;;;17.50;99.90;;;;;;5032231;28;20078;-79
2023/06/17 07:33:34;;;;;;;22.50;15.32;;;17.60;99.90;;;;;;5050217;28;20124;-79
2023/06/17 07:35:59;;;;;;;20.30;13.70;;;17.80;99.90;;;;;;5032305;28;20415;-80
2023/06/17 07:38:25;;;;;;;27.80;14.68;;;17.90;99.90;;;;;;5032423;28;20041;-80
2023/06/17 07:40:51;;;;;;;23.52;14.10;;;18.00;99.90;;;;;;5032082;28;20049;-79
2023/06/17 07:43:17;;;;;;;22.08;14.63;;;18.10;99.90;;;;;;5032562;28;20033;-79
2023/06/17 07:45:42;;;;;;;20.13;14.15;;;18.10;99.90;;;;;;5049989;28;20049;-80
2023/06/17 07:48:08;;;;;;;23.45;14.85;;;18.20;99.90;;;;;;5032179;28;20049;-79
2023/06/17 07:50:34;;;;;;;19.80;13.85;;;18.40;99.90;;;;;;5050159;28;20110;-81
2023/06/17 07:52:59;;;;;;;20.40;13.57;;;18.50;99.90;;;;;;5049986;28;20057;-79
2023/06/17 07:55:26;;;;;;;22.92;13.93;;;18.40;99.90;;;;;;5050297;28;20053;-80
2023/06/17 07:57:52;;;;;;;18.13;13.25;;;18.80;99.90;;;;;;5032045;28;20239;-79
2023/06/17 08:00:18;;;;;;;22.17;13.60;;;19.10;99.90;;;;;;5032202;28;20475;-79
2023/06/17 08:02:44;;;;;;;20.08;12.65;;;19.50;99.90;;;;;;5031975;28;20152;-79
2023/06/17 08:05:09;;;;;;;18.77;12.55;;;19.90;99.90;;;;;;5031663;28;20061;-78
2023/06/17 08:07:35;;;;;;;22.33;12.85;;;20.10;99.90;;;;;;5032352;28;20055;-80
2023/06/17 08:10:02;;;;;;;17.10;12.68;;;20.30;99.90;;;;;;5049976;28;20049;-79
2023/06/17 08:12:27;;;;;;;27.52;12.77;;;20.60;99.90;;;;;;5032028;28;20052;-80
2023/06/17 08:14:53;;;;;;;19.80;13.32;;;20.90;99.90;;;;;;5032282;28;20041;-79
2023/06/17 08:17:18;;;;;;;15.82;11.48;;;21.00;99.90;;;;;;5015051;28;20049;-79
2023/06/17 08:19:44;;;;;;;20.33;12.93;;;21.20;99.90;;;;;;5049428;28;20056;-80
2023/06/17 08:22:10;;;;;;;22.85;12.60;;;21.30;99.90;;;;;;5032115;28;20048;-79
2023/06/17 08:24:36;;;;;;;16.90;11.77;;;21.40;99.90;;;;;;5031675;28;20052;-79
2023/06/17 08:27:02;;;;;;;15.88;11.27;;;21.60;99.90;;;;;;5031742;28;20052;-80
2023/06/17 08:29:28;;;;;;;19.95;11.23;;;21.70;99.90;;;;;;5051832;28;20104;-80
2023/06/17 08:31:53;;;;;;;18.05;10.65;;;21.90;99.90;;;;;;5018449;28;20106;-80
2023/06/17 08:34:21;;;;;;;13.95;10.40;;;22.00;99.90;;;;;;5053529;28;20432;-80
2023/06/17 08:36:52;;;;;;;19.33;11.15;;;22.30;99.90;;;;;;5035098;28;20511;-80
2023/06/17 08:39:18;;;;;;;17.30;11.10;;;22.50;99.90;;;;;;5035614;28;20812;-80
2023/06/17 08:41:45;;;;;;;15.82;9.95;;;22.70;99.90;;;;;;5053350;28;20044;-81
2023/06/17 08:44:12;;;;;;;15.07;11.35;;;23.00;99.90;;;;;;5053373;28;20048;-78
2023/06/17 08:46:39;;;;;;;16.35;9.75;;;23.10;99.90;;;;;;5035500;28;20049;-81
2023/06/17 08:49:07;;;;;;;14.18;10.27;;;23.40;99.90;;;;;;5035525;28;20037;-76
2023/06/17 08:51:34;;;;;;;18.52;11.45;;;23.60;99.90;;;;;;5035171;28;20048;-79
2023/06/17 08:54:01;;;;;;;16.50;10.55;;;23.70;99.90;;;;;;5053583;28;20052;-79
2023/06/17 08:56:27;;;;;;;22.45;10.90;;;23.60;99.90;;;;;;5036053;28;20049;-80
2023/06/17 08:58:55;;;;;;;14.18;9.98;;;23.60;99.90;;;;;;5053670;28;20045;-79
2023/06/17 09:01:22;;;;;;;15.35;9.90;;;23.80;99.90;;;;;;5053080;28;20084;-81
2023/06/17 09:03:50;;;;;;;15.73;9.68;;;24.00;99.90;;;;;;5035209;28;20053;-79
2023/06/17 09:06:16;;;;;;;24.42;10.13;;;24.30;99.90;;;;;;5052753;28;20049;-81
2023/06/17 09:08:42;;;;;;;13.98;8.43;;;24.30;99.90;;;;;;5053219;28;20056;-79
2023/06/17 09:11:09;;;;;;;15.77;10.18;;;24.40;99.90;;;;;;5035587;28;20067;-79
2023/06/17 09:13:36;;;;;;;15.82;9.05;;;24.70;99.90;;;;;;5053086;28;20103;-81
2023/06/17 09:16:02;;;;;;;17.40;10.13;;;24.70;99.90;;;;;;5053139;28;20726;-78
2023/06/17 09:18:31;;;;;;;12.93;9.43;;;24.70;99.90;;;;;;5035302;28;20164;-79
2023/06/17 09:20:57;;;;;;;12.85;9.80;;;24.90;99.90;;;;;;5053373;28;20044;-80
2023/06/17 09:23:27;;;;;;;14.13;8.65;;;25.00;99.90;;;;;;5035173;28;20044;-79
2023/06/17 09:26:03;;;;;;;15.18;9.15;;;24.90;99.90;;;;;;5045321;28;20043;-79
2023/06/17 09:28:30;;;;;;;15.25;9.18;;;25.10;99.90;;;;;;5035191;28;20458;-81
2023/06/17 09:30:59;;;;;;;14.65;8.63;;;25.30;99.90;;;;;;5034446;28;20093;-80
2023/06/17 09:33:26;;;;;;;15.98;8.20;;;25.20;99.90;;;;;;5035204;28;20051;-79
2023/06/17 09:35:58;;;;;;;15.00;8.27;;;25.10;99.90;;;;;;5034833;28;20053;-80
2023/06/17 09:38:25;;;;;;;14.40;8.57;;;25.30;99.90;;;;;;5034933;28;20049;-79
2023/06/17 09:40:51;;;;;;;13.95;8.10;;;25.50;99.90;;;;;;5052697;28;20075;-78
2023/06/17 09:43:16;;;;;;;14.13;8.18;;;25.80;99.90;;;;;;5052696;28;20048;-80
2023/06/17 09:45:44;;;;;;;18.30;9.05;;;25.90;99.90;;;;;;5017717;28;20518;-77
2023/06/17 09:48:10;;;;;;;16.85;8.85;;;26.10;99.90;;;;;;5035100;28;20052;-78
2023/06/17 09:50:37;;;;;;;13.23;8.05;;;26.20;99.90;;;;;;5052870;28;20051;-79
2023/06/17 09:53:05;;;;;;;12.70;8.23;;;26.10;99.90;;;;;;5052227;28;20037;-79
2023/06/17 09:55:31;;;;;;;19.58;8.35;;;26.10;99.90;;;;;;5052298;28;20045;-80
2023/06/17 09:58:01;;;;;;;14.80;8.57;;;26.30;99.90;;;;;;5052866;28;20059;-80
2023/06/17 10:00:27;;;;;;;16.52;8.93;;;26.30;99.60;;;;;;5052668;28;20037;-80
2023/06/17 10:02:53;;;;;;;14.43;8.48;;;26.20;99.90;;;;;;5052715;28;20052;-80
2023/06/17 10:05:20;;;;;;;13.52;8.18;;;26.20;99.90;;;;;;5052376;28;20086;-80
2023/06/17 10:07:48;;;;;;;13.77;8.90;;;26.40;99.90;;;;;;5034719;28;20374;-80
2023/06/17 10:10:17;;;;;;;15.55;9.75;;;26.50;99.90;;;;;;5052705;28;20118;-78
2023/06/17 10:12:44;;;;;;;14.55;8.95;;;26.30;99.90;;;;;;5017567;28;20492;-81
2023/06/17 10:15:12;;;;;;;16.08;8.65;;;26.20;99.90;;;;;;5051626;28;20043;-79
2023/06/17 10:17:41;;;;;;;16.70;8.50;;;26.30;99.90;;;;;;5052181;28;20045;-81
2023/06/17 10:20:08;;;;;;;14.35;8.70;;;26.40;99.80;;;;;;5034062;28;20048;-79
2023/06/17 10:22:37;;;;;;;16.25;8.32;;;26.70;99.80;;;;;;5017158;28;20088;-80
2023/06/17 10:25:09;;;;;;;14.55;8.55;;;26.80;99.90;;;;;;5033315;28;20044;-81
2023/06/17 10:27:35;;;;;;;14.10;8.20;;;26.20;98.30;;;;;;5033445;28;20045;-78
2023/06/17 10:30:00;;;;;;;14.90;8.63;;;26.50;99.60;;;;;;5051666;28;20053;-77
2023/06/17 10:32:26;;;;;;;16.02;9.48;;;26.80;99.70;;;;;;5052246;28;20051;-79
2023/06/17 10:35:11;;;;;;;11.32;7.50;;;26.70;99.40;;;;;;5033892;28;20071;-78
2023/06/17 10:37:48;;;;;;;12.68;8.32;;;27.10;99.10;;;;;;5033797;28;20048;-78
2023/06/17 10:40:27;;;;;;;13.45;7.78;;;26.90;98.90;;;;;;5051665;28;20048;-78
2023/06/17 10:43:02;;;;;;;14.38;7.20;;;27.10;98.20;;;;;;5033897;28;20089;-79
2023/06/17 10:45:32;;;;;;;13.27;6.90;;;27.30;98.20;;;;;;5033845;28;20048;-79
2023/06/17 10:48:30;;;;;;;12.05;7.40;;;27.60;98.50;;;;;;5051864;28;20061;-78
2023/06/17 10:51:18;;;;;;;11.23;6.22;;;27.60;98.10;;;;;;5034445;28;20075;-79
2023/06/17 10:53:51;;;;;;;13.07;6.75;;;27.70;97.80;;;;;;5051752;28;20492;-78
2023/06/17 10:56:17;;;;;;;9.10;6.78;;;27.40;97.10;;;;;;5051471;28;20148;-79
2023/06/17 10:58:47;;;;;;;11.65;6.32;;;27.50;97.90;;;;;;5033391;28;20183;-78
2023/06/17 11:01:13;;;;;;;11.40;6.40;;;27.40;97.00;;;;;;5050662;28;20045;-80
2023/06/17 11:03:40;;;;;;;13.68;5.85;;;27.50;97.40;;;;;;5051165;28;20083;-77
2023/06/17 11:06:07;;;;;;;10.60;5.93;;;27.70;97.30;;;;;;5033061;28;20560;-78
2023/06/17 11:08:35;;;;;;;9.23;6.22;;;27.90;97.20;;;;;;5051214;28;20052;-80
2023/06/17 11:11:15;;;;;;;11.50;6.22;;;27.90;96.90;;;;;;5032494;28;20481;-78
2023/06/17 11:13:50;;;;;;;12.63;5.50;;;28.00;96.70;;;;;;5025338;28;20088;-79
2023/06/17 11:16:16;;;;;;;12.30;5.75;;;28.30;97.20;;;;;;5033256;28;20053;-79
2023/06/17 11:18:44;;;;;;;12.40;6.20;;;28.40;96.80;;;;;;5050872;28;20045;-79
2023/06/17 11:21:10;;;;;;;9.23;6.35;;;28.40;96.50;;;;;;5050795;28;20057;-79
2023/06/17 11:23:40;;;;;;;13.52;6.43;;;28.10;95.60;;;;;;5033034;28;20048;-79
2023/06/17 11:26:07;;;;;;;8.93;5.90;;;28.40;96.20;;;;;;5032203;28;20045;-81
2023/06/17 11:28:35;;;;;;;12.85;6.00;;;28.30;95.70;;;;;;5032869;28;20080;-79
2023/06/17 11:31:01;;;;;;;12.40;6.13;;;28.50;95.90;;;;;;5050873;28;20053;-80
2023/06/17 11:33:28;;;;;;;11.95;5.75;;;28.40;95.70;;;;;;5033308;28;20048;-78
2023/06/17 11:35:54;;;;;;;10.00;5.63;;;28.50;95.70;;;;;;5050795;28;20049;-80
2023/06/17 11:38:24;;;;;;;9.82;5.80;;;28.40;95.60;;;;;;5032926;28;20269;-80
2023/06/17 11:40:57;;;;;;;13.55;6.18;;;28.30;94.90;;;;;;5032929;28;20214;-80
2023/06/17 11:43:26;;;;;;;9.07;5.70;;;28.60;94.60;;;;;;5050879;28;20041;-78
2023/06/17 11:45:56;;;;;;;7.88;4.70;;;28.70;93.40;;;;;;5032269;28;20318;-79
2023/06/17 11:48:29;;;;;;;8.35;5.10;;;28.60;94.30;;;;;;5032885;28;20064;-79
2023/06/17 11:50:56;;;;;;;9.13;5.63;;;28.90;93.80;;;;;;5050441;28;20044;-77
2023/06/17 11:53:38;;;;;;;9.77;5.65;;;29.00;94.60;;;;;;5033015;28;20040;-77
2023/06/17 11:56:05;;;;;;;10.35;4.70;;;28.90;93.70;;;;;;5049997;28;20037;-79
2023/06/17 11:58:32;;;;;;;10.07;4.80;;;28.90;93.90;;;;;;5050396;28;20501;-80
2023/06/17 12:00:59;;;;;;;8.18;5.70;;;28.80;93.20;;;;;;5032355;28;20127;-79
2023/06/17 12:03:25;;;;;;;11.15;5.43;;;28.60;93.80;;;;;;5052434;28;20045;-79
2023/06/17 12:05:51;;;;;;;6.80;5.25;;;28.80;94.10;;;;;;5054206;28;20407;-78
2023/06/17 12:08:16;;;;;;;9.98;5.22;;;28.90;93.90;;;;;;5054136;28;20072;-80
2023/06/17 12:10:42;;;;;;;11.15;5.20;;;29.10;94.10;;;;;;5054498;28;20049;-79
2023/06/17 12:13:12;;;;;;;9.55;5.10;;;29.20;93.40;;;;;;5054395;28;20036;-78
2023/06/17 12:15:38;;;;;;;11.00;5.22;;;29.50;92.90;;;;;;5045993;28;20037;-79
2023/06/17 12:18:11;;;;;;;10.85;5.40;;;29.80;93.60;;;;;;5054656;28;20051;-78
2023/06/17 12:20:37;;;;;;;10.23;4.97;;;29.70;92.00;;;;;;5053903;28;20404;-78
2023/06/17 12:23:03;;;;;;;8.50;4.78;;;29.70;93.00;;;;;;5036358;28;20123;-80
2023/06/17 12:25:35;;;;;;;12.05;5.50;;;29.90;92.50;;;;;;5054273;28;20142;-79
2023/06/17 12:28:01;;;;;;;10.50;5.55;;;29.50;91.60;;;;;;5053874;28;20040;-79
2023/06/17 12:30:27;;;;;;;8.80;4.60;;;29.40;92.30;;;;;;5054011;28;20111;-79